createdAt,value
2022-10-28T00:03:24.961Z,19.50
2022-10-28T00:08:28.356Z,17.27
2022-10-28T00:13:31.308Z,17.27
2022-10-28T00:18:34.183Z,19.41
2022-10-28T00:23:36.827Z,20.10
2022-10-28T00:28:50.631Z,18.44
2022-10-28T00:33:53.905Z,16.47
2022-10-28T00:38:56.971Z,16.76
2022-10-28T00:44:04.057Z,19.01
2022-10-28T00:49:19.964Z,19.83
2022-10-28T00:54:23.467Z,19.33
2022-10-28T00:59:36.730Z,17.06
2022-10-28T01:04:39.827Z,17.12
2022-10-28T01:09:42.856Z,19.22
2022-10-28T01:15:04.396Z,20.02
2022-10-28T01:20:37.892Z,18.45
2022-10-28T01:25:49.742Z,18.04
2022-10-28T01:31:26.530Z,20.21
2022-10-28T01:36:48.071Z,18.67
2022-10-28T01:41:54.752Z,16.84
2022-10-28T01:46:57.227Z,17.33
2022-10-28T01:52:04.959Z,19.75
2022-10-28T01:57:09.286Z,19.77
2022-10-28T02:02:11.879Z,17.48
2022-10-28T02:07:16.654Z,17.54
2022-10-28T02:12:23.960Z,19.81
2022-10-28T02:17:32.043Z,19.41
2022-10-28T02:22:51.834Z,17.09
2022-10-28T02:28:07.699Z,17.30
2022-10-28T02:33:14.895Z,19.60
2022-10-28T02:38:40.532Z,18.16
2022-10-28T02:43:45.869Z,16.07
2022-10-28T02:48:53.177Z,16.48
2022-10-28T02:54:08.289Z,18.99
2022-10-28T02:59:13.057Z,18.75
2022-10-28T03:04:15.654Z,16.54
2022-10-28T03:09:18.331Z,16.49
2022-10-28T03:14:21.031Z,18.87
2022-10-28T03:19:23.923Z,17.95
2022-10-28T03:24:26.633Z,15.85
2022-10-28T03:29:29.330Z,16.02
2022-10-28T03:34:31.932Z,18.30
2022-10-28T03:39:34.567Z,18.12
2022-10-28T03:44:37.180Z,15.94
2022-10-28T03:49:39.818Z,16.04
2022-10-28T03:54:42.521Z,18.59
2022-10-28T03:59:45.105Z,17.77
2022-10-28T04:04:47.739Z,15.73
2022-10-28T04:09:51.562Z,15.91
2022-10-28T04:14:54.178Z,18.43
2022-10-28T04:19:56.830Z,18.22
2022-10-28T04:24:59.506Z,15.97
2022-10-28T04:30:02.436Z,16.01
2022-10-28T04:35:05.689Z,18.32
2022-10-28T04:40:09.834Z,18.15
2022-10-28T04:45:12.575Z,16.05
2022-10-28T04:50:15.378Z,16.27
2022-10-28T04:55:18.165Z,18.49
2022-10-28T05:00:20.953Z,18.21
2022-10-28T05:05:23.595Z,16.06
2022-10-28T05:10:26.480Z,16.21
2022-10-28T05:15:31.325Z,18.51
2022-10-28T05:20:34.437Z,18.12
2022-10-28T05:25:37.146Z,16.05
2022-10-28T05:30:39.789Z,16.34
2022-10-28T05:35:42.532Z,18.90
2022-10-28T05:40:45.171Z,17.66
2022-10-28T05:45:58.078Z,15.68
2022-10-28T05:51:00.775Z,16.13
2022-10-28T05:56:03.542Z,18.60
2022-10-28T06:01:07.387Z,18.38
2022-10-28T06:06:10.057Z,16.28
2022-10-28T06:11:11.449Z,16.28
2022-10-28T06:16:14.147Z,18.50
2022-10-28T06:21:17.023Z,18.45
2022-10-28T06:26:20.066Z,16.22
2022-10-28T06:31:22.904Z,16.17
2022-10-28T06:36:25.563Z,18.55
2022-10-28T06:41:28.223Z,18.97
2022-10-28T06:46:31.310Z,16.89
2022-10-28T06:51:35.738Z,16.81
2022-10-28T06:56:38.875Z,19.10
2022-10-28T07:01:41.666Z,19.05
2022-10-28T07:06:49.844Z,16.90
2022-10-28T07:11:55.685Z,17.06
2022-10-28T07:17:00.130Z,19.43
2022-10-28T07:22:03.020Z,18.77
2022-10-28T07:27:06.162Z,16.80
2022-10-28T07:32:08.939Z,17.02
2022-10-28T07:37:12.865Z,19.37
2022-10-28T07:42:15.930Z,19.52
2022-10-28T07:47:19.677Z,17.54
2022-10-28T07:52:22.477Z,17.83
2022-10-28T07:57:25.175Z,20.19
2022-10-28T08:02:27.814Z,19.35
2022-10-28T08:07:34.821Z,17.53
2022-10-28T08:12:40.540Z,17.98
2022-10-28T08:17:43.181Z,20.42
2022-10-28T08:22:45.899Z,20.55
2022-10-28T08:27:50.478Z,18.78
2022-10-28T08:33:02.314Z,19.13
2022-10-28T08:38:07.638Z,21.48
2022-10-28T08:43:52.880Z,20.30
2022-10-28T08:49:09.519Z,18.88
2022-10-28T08:54:20.578Z,19.59
2022-10-28T08:59:31.933Z,21.37
2022-10-28T09:04:43.597Z,20.13
2022-10-28T09:10:20.625Z,21.91
2022-10-28T09:15:34.649Z,21.92
2022-10-28T09:20:52.153Z,20.38
2022-10-28T09:25:57.762Z,21.60
2022-10-28T09:31:17.876Z,20.30
2022-10-28T09:36:30.812Z,21.66
2022-10-28T09:41:44.210Z,21.16
2022-10-28T09:46:51.442Z,20.96
2022-10-28T09:52:05.482Z,21.59
2022-10-28T09:57:09.775Z,20.33
2022-10-28T10:02:40.401Z,21.40
2022-10-28T10:07:55.047Z,21.61
2022-10-28T10:13:02.794Z,20.56
2022-10-28T10:18:07.435Z,22.41
2022-10-28T10:23:23.160Z,22.95
2022-10-28T10:28:27.712Z,22.84
2022-10-28T10:33:54.347Z,23.28
2022-10-28T10:39:22.979Z,23.73
2022-10-28T10:44:33.446Z,24.31
2022-10-28T10:49:36.639Z,24.35
2022-10-28T10:54:40.276Z,24.90
2022-10-28T10:59:48.489Z,25.80
2022-10-28T11:04:53.726Z,26.51
2022-10-28T11:09:56.332Z,27.17
2022-10-28T11:15:16.605Z,27.48
2022-10-28T11:20:25.721Z,27.83
2022-10-28T11:25:50.620Z,28.55
2022-10-28T11:31:29.554Z,29.19
2022-10-28T11:36:45.610Z,28.83
2022-10-28T11:42:10.039Z,28.99
2022-10-28T11:47:28.331Z,29.24
2022-10-28T11:52:57.489Z,29.04
2022-10-28T11:58:09.148Z,28.06
2022-10-28T12:03:33.570Z,26.43
2022-10-28T12:09:10.522Z,25.14
2022-10-28T12:14:22.892Z,24.42
2022-10-28T12:19:59.674Z,23.20
2022-10-28T12:25:09.967Z,22.08
2022-10-28T12:30:22.208Z,21.36
2022-10-28T12:35:31.781Z,20.72
2022-10-28T12:40:50.450Z,20.10
2022-10-28T12:45:56.471Z,19.52
2022-10-28T12:51:25.514Z,19.74
2022-10-28T12:56:38.092Z,21.46
2022-10-28T13:01:43.738Z,20.42
2022-10-28T13:07:07.933Z,19.70
2022-10-28T13:12:17.390Z,19.24
2022-10-28T13:17:46.784Z,21.56
2022-10-28T13:22:54.461Z,22.17
2022-10-28T13:28:01.135Z,20.55
2022-10-28T13:33:06.328Z,19.55
2022-10-28T13:38:12.758Z,20.75
2022-10-28T13:43:50.120Z,21.80
2022-10-28T13:48:53.084Z,20.22
2022-10-28T13:53:57.021Z,19.54
2022-10-28T13:59:25.209Z,21.16
2022-10-28T14:04:39.359Z,20.30
2022-10-28T14:10:22.416Z,20.62
2022-10-28T14:15:30.720Z,22.58
2022-10-28T14:20:40.694Z,21.12
2022-10-28T14:25:46.307Z,19.90
2022-10-28T14:31:11.598Z,20.33
2022-10-28T14:36:17.590Z,20.79
2022-10-28T14:41:34.201Z,19.53
2022-10-28T14:47:07.743Z,21.21
2022-10-28T14:52:20.349Z,21.27
2022-10-28T14:57:32.654Z,19.74
2022-10-28T15:02:38.333Z,18.93
2022-10-28T15:07:42.045Z,20.76
2022-10-28T15:12:49.081Z,22.24
2022-10-28T15:17:52.535Z,20.70
2022-10-28T15:23:21.797Z,19.31
2022-10-28T15:28:24.614Z,19.93
2022-10-28T15:33:36.529Z,22.25
2022-10-28T15:38:52.920Z,20.91
2022-10-28T15:44:03.640Z,19.25
2022-10-28T15:49:06.253Z,19.57
2022-10-28T15:54:20.687Z,21.27
2022-10-28T15:59:25.544Z,19.63
2022-10-28T16:04:42.834Z,19.88
2022-10-28T16:09:48.508Z,20.76
2022-10-28T16:14:59.332Z,19.07
2022-10-28T16:20:30.032Z,19.94
2022-10-28T16:25:32.772Z,21.61
2022-10-28T16:30:35.394Z,20.04
2022-10-28T16:35:38.001Z,20.21
2022-10-28T16:40:56.597Z,21.59
2022-10-28T16:46:17.294Z,19.64
2022-10-28T16:51:20.094Z,19.63
2022-10-28T16:56:23.202Z,21.16
2022-10-28T17:01:26.013Z,19.81
2022-10-28T17:06:28.760Z,20.95
2022-10-28T17:16:42.404Z,19.40
2022-10-28T17:21:46.191Z,20.08
2022-10-28T17:26:49.278Z,20.95
2022-10-28T17:31:52.168Z,20.04
2022-10-28T17:37:12.721Z,21.89
2022-10-28T17:42:33.058Z,21.70
2022-10-28T17:47:53.557Z,19.64
2022-10-28T17:53:14.805Z,19.86
2022-10-28T17:58:17.508Z,21.02
2022-10-28T18:03:20.119Z,19.37
2022-10-28T18:08:43.037Z,19.65
2022-10-28T18:14:04.698Z,21.88
2022-10-28T18:19:07.692Z,21.68
2022-10-28T18:24:10.757Z,19.69
2022-10-28T18:29:13.636Z,19.64
2022-10-28T18:34:34.456Z,21.61
2022-10-28T18:39:38.211Z,20.57
2022-10-28T18:44:41.486Z,20.38
2022-10-28T18:49:45.743Z,21.03
2022-10-28T18:54:48.466Z,19.47
2022-10-28T19:05:34.585Z,22.02
2022-10-28T19:10:37.202Z,21.09
2022-10-28T19:15:47.040Z,19.57
2022-10-28T19:21:11.802Z,21.57
2022-10-28T19:26:33.605Z,21.54
2022-10-28T19:31:53.889Z,19.83
2022-10-28T19:36:56.512Z,21.51
2022-10-28T19:41:59.199Z,20.98
2022-10-28T19:47:02.114Z,19.26
2022-10-28T19:52:04.901Z,20.65
2022-10-28T19:57:07.529Z,21.06
2022-10-28T20:02:11.722Z,19.32
2022-10-28T20:07:14.621Z,20.53
2022-10-28T20:12:34.657Z,20.95
2022-10-28T20:17:37.283Z,19.58
2022-10-28T20:22:42.330Z,21.20
2022-10-28T20:27:45.413Z,20.28
2022-10-28T20:32:51.866Z,20.00
2022-10-28T20:37:57.903Z,21.44
2022-10-28T20:43:00.921Z,19.87
2022-10-28T20:48:03.926Z,19.69
2022-10-28T20:53:06.663Z,21.19
2022-10-28T20:58:09.265Z,19.81
2022-10-28T21:03:12.057Z,20.76
2022-10-28T21:08:14.969Z,21.36
2022-10-28T21:13:35.403Z,19.33
2022-10-28T21:18:56.469Z,19.45
2022-10-28T21:23:59.231Z,21.36
2022-10-28T21:29:01.845Z,20.62
2022-10-28T21:34:21.895Z,20.12
2022-10-28T21:39:24.497Z,21.39
2022-10-28T21:44:27.125Z,19.81
2022-10-28T21:49:29.742Z,20.62
2022-10-28T21:54:34.058Z,20.94
2022-10-28T21:59:36.756Z,19.73
2022-10-28T22:04:39.763Z,20.95
2022-10-28T22:09:42.461Z,20.34
2022-10-28T22:15:02.773Z,21.11
2022-10-28T22:20:07.629Z,21.06
2022-10-28T22:25:10.788Z,20.04
2022-10-28T22:30:14.289Z,21.00
2022-10-28T22:35:16.951Z,19.65
2022-10-28T22:40:19.554Z,20.85
2022-10-28T22:45:39.956Z,19.93
2022-10-28T22:50:42.756Z,20.38
2022-10-28T22:56:03.867Z,20.73
2022-10-28T23:01:06.992Z,19.89
2022-10-28T23:06:11.214Z,20.80
2022-10-28T23:11:15.154Z,19.54
2022-10-28T23:16:17.959Z,20.47
2022-10-28T23:21:38.682Z,21.09
2022-10-28T23:26:42.381Z,19.27
2022-10-28T23:31:44.987Z,20.52
2022-10-28T23:36:50.162Z,20.75
2022-10-28T23:41:52.855Z,19.66
2022-10-28T23:46:55.470Z,20.86
2022-10-28T23:51:58.126Z,19.42
2022-10-28T23:57:00.812Z,19.75
